createdAt,value
2023-11-26T00:02:03.584Z,95933.73
2023-11-26T00:04:31.867Z,95943.23
2023-11-26T00:07:00.028Z,95946.64
2023-11-26T00:09:28.017Z,95948.90
2023-11-26T00:11:56.150Z,95943.61
2023-11-26T00:14:24.159Z,95947.15
2023-11-26T00:16:52.637Z,95949.23
2023-11-26T00:19:20.718Z,95947.31
2023-11-26T00:21:50.423Z,95943.16
2023-11-26T00:24:18.619Z,95945.19
2023-11-26T00:26:46.862Z,95950.17
2023-11-26T00:29:15.868Z,95948.70
2023-11-26T00:31:44.020Z,95952.30
2023-11-26T00:34:12.480Z,95950.38
2023-11-26T00:36:40.584Z,95949.30
2023-11-26T00:39:10.252Z,95957.69
2023-11-26T00:41:38.493Z,95956.67
2023-11-26T00:44:06.565Z,95951.14
2023-11-26T00:46:34.830Z,95954.35
2023-11-26T00:49:07.081Z,95957.91
2023-11-26T00:51:35.287Z,95960.28
2023-11-26T00:54:03.457Z,95965.81
2023-11-26T00:56:31.487Z,95963.02
2023-11-26T00:58:59.720Z,95968.27
2023-11-26T01:01:27.855Z,95964.10
2023-11-26T01:03:56.245Z,95961.73
2023-11-26T01:06:24.370Z,95959.72
2023-11-26T01:08:52.368Z,95958.72
2023-11-26T01:11:20.570Z,95961.53
2023-11-26T01:13:48.937Z,95962.19
2023-11-26T01:16:17.116Z,95956.63
2023-11-26T01:18:45.389Z,95958.05
2023-11-26T01:21:14.847Z,95957.85
2023-11-26T01:23:43.486Z,95951.62
2023-11-26T01:26:12.469Z,95955.37
2023-11-26T01:28:40.804Z,95957.74
2023-11-26T01:31:14.556Z,95959.02
2023-11-26T01:33:42.683Z,95960.98
2023-11-26T01:36:11.285Z,95960.26
2023-11-26T01:38:39.996Z,95951.75
2023-11-26T01:41:08.743Z,95957.41
2023-11-26T01:43:36.766Z,95957.86
2023-11-26T01:46:07.101Z,95965.70
2023-11-26T01:48:36.675Z,95966.77
2023-11-26T01:51:07.310Z,95967.09
2023-11-26T01:53:36.678Z,95967.40
2023-11-26T01:56:05.832Z,95972.31
2023-11-26T01:58:35.224Z,95967.85
2023-11-26T02:01:03.676Z,95965.76
2023-11-26T02:03:32.027Z,95971.53
2023-11-26T02:06:00.449Z,95983.43
2023-11-26T02:08:28.737Z,95994.68
2023-11-26T02:10:56.844Z,95993.66
2023-11-26T02:13:26.464Z,95989.76
2023-11-26T02:15:54.634Z,95985.17
2023-11-26T02:18:22.783Z,95982.96
2023-11-26T02:20:51.069Z,95989.26
2023-11-26T02:23:19.132Z,95994.90
2023-11-26T02:25:47.204Z,95998.06
2023-11-26T02:28:15.246Z,96000.85
2023-11-26T02:30:43.397Z,95998.85
2023-11-26T02:33:11.589Z,96007.86
2023-11-26T02:35:39.749Z,96017.06
2023-11-26T02:38:08.159Z,96017.94
2023-11-26T02:40:36.284Z,96018.79
2023-11-26T02:43:04.560Z,96019.77
2023-11-26T02:45:32.555Z,96020.73
2023-11-26T02:48:00.944Z,96015.26
2023-11-26T02:50:29.545Z,96026.34
2023-11-26T02:52:57.587Z,96024.19
2023-11-26T02:55:25.628Z,96027.91
2023-11-26T02:57:53.910Z,96027.04
2023-11-26T03:00:21.960Z,96018.89
2023-11-26T03:02:50.680Z,96013.98
2023-11-26T03:05:19.938Z,96015.40
2023-11-26T03:07:50.277Z,96022.77
2023-11-26T03:10:38.052Z,96021.38
2023-11-26T03:13:13.697Z,96025.81
2023-11-26T03:15:42.260Z,96034.13
2023-11-26T03:18:14.069Z,96037.08
2023-11-26T03:20:42.780Z,96044.30
2023-11-26T03:23:11.197Z,96044.29
2023-11-26T03:25:39.803Z,96049.21
2023-11-26T03:28:09.209Z,96056.96
2023-11-26T03:30:37.508Z,96054.08
2023-11-26T03:33:05.871Z,96050.29
2023-11-26T03:35:34.167Z,96052.90
2023-11-26T03:38:03.026Z,96056.09
2023-11-26T03:40:31.244Z,96059.45
2023-11-26T03:42:59.987Z,96058.05
2023-11-26T03:45:28.063Z,96054.50
2023-11-26T03:47:57.691Z,96053.58
2023-11-26T03:50:26.173Z,96051.91
2023-11-26T03:52:55.442Z,96052.45
2023-11-26T03:55:23.745Z,96057.21
2023-11-26T03:57:53.820Z,96050.54
2023-11-26T04:00:22.988Z,96046.52
2023-11-26T04:02:52.449Z,96049.11
2023-11-26T04:05:21.302Z,96044.60
2023-11-26T04:07:50.832Z,96045.21
2023-11-26T04:10:27.526Z,96042.71
2023-11-26T04:13:00.492Z,96033.63
2023-11-26T04:15:28.750Z,96045.84
2023-11-26T04:17:56.930Z,96051.60
2023-11-26T04:20:28.245Z,96055.34
2023-11-26T04:22:56.473Z,96060.58
2023-11-26T04:25:24.800Z,96064.90
2023-11-26T04:27:52.804Z,96064.64
2023-11-26T04:30:21.142Z,96075.23
2023-11-26T04:32:49.345Z,96080.38
2023-11-26T04:35:17.371Z,96087.67
2023-11-26T04:37:45.593Z,96083.58
2023-11-26T04:40:13.709Z,96092.33
2023-11-26T04:42:41.805Z,96098.79
2023-11-26T04:45:11.345Z,96103.14
2023-11-26T04:47:39.736Z,96101.52
2023-11-26T04:50:08.563Z,96101.77
2023-11-26T04:52:36.692Z,96100.66
2023-11-26T04:55:05.082Z,96104.49
2023-11-26T04:57:33.103Z,96108.84
2023-11-26T05:00:01.352Z,96113.58
2023-11-26T05:02:33.809Z,96113.06
2023-11-26T05:05:02.406Z,96117.60
2023-11-26T05:07:30.700Z,96125.45
2023-11-26T05:09:58.847Z,96119.86
2023-11-26T05:12:26.905Z,96123.07
2023-11-26T05:14:54.901Z,96122.98
2023-11-26T05:19:51.297Z,96129.20
2023-11-26T05:22:19.313Z,96130.55
2023-11-26T05:24:47.299Z,96129.84
2023-11-26T05:27:15.333Z,96126.77
2023-11-26T05:29:43.513Z,96126.91
2023-11-26T05:32:12.129Z,96131.48
2023-11-26T05:34:40.295Z,96135.06
2023-11-26T05:37:08.276Z,96134.27
2023-11-26T05:39:36.301Z,96133.98
2023-11-26T05:42:04.583Z,96142.45
2023-11-26T05:44:33.003Z,96128.64
2023-11-26T05:47:01.064Z,96139.45
2023-11-26T05:49:29.465Z,96143.39
2023-11-26T05:51:58.846Z,96144.38
2023-11-26T05:54:27.035Z,96149.65
2023-11-26T05:56:55.195Z,96158.11
2023-11-26T05:59:23.366Z,96163.14
2023-11-26T06:01:51.854Z,96161.84
2023-11-26T06:04:19.863Z,96160.70
2023-11-26T06:06:48.436Z,96167.19
2023-11-26T06:09:16.834Z,96164.52
2023-11-26T06:11:45.383Z,96164.77
2023-11-26T06:14:13.426Z,96167.77
2023-11-26T06:16:44.920Z,96169.48
2023-11-26T06:19:12.910Z,96175.00
2023-11-26T06:21:41.036Z,96183.64
2023-11-26T06:24:10.448Z,96180.70
2023-11-26T06:26:39.420Z,96178.94
2023-11-26T06:29:07.859Z,96187.13
2023-11-26T06:31:36.016Z,96185.48
2023-11-26T06:34:04.264Z,96183.02
2023-11-26T06:36:32.378Z,96184.93
2023-11-26T06:39:00.466Z,96179.95
2023-11-26T06:41:29.763Z,96179.67
2023-11-26T06:43:58.183Z,96185.59
2023-11-26T06:46:28.409Z,96190.98
2023-11-26T06:48:57.014Z,96197.96
2023-11-26T06:51:25.230Z,96202.64
2023-11-26T06:53:53.661Z,96204.24
2023-11-26T06:56:21.855Z,96208.18
2023-11-26T06:58:49.836Z,96208.16
2023-11-26T07:01:17.846Z,96208.67
2023-11-26T07:03:46.449Z,96214.08
2023-11-26T07:06:14.760Z,96222.30
2023-11-26T07:08:44.809Z,96214.53
2023-11-26T07:11:17.892Z,96225.45
2023-11-26T07:13:49.276Z,96229.30
2023-11-26T07:16:18.242Z,96225.27
2023-11-26T07:18:46.760Z,96234.10
2023-11-26T07:21:16.295Z,96232.69
2023-11-26T07:23:44.563Z,96234.42
2023-11-26T07:26:13.507Z,96238.72
2023-11-26T07:28:41.670Z,96239.73
2023-11-26T07:31:17.330Z,96238.80
2023-11-26T07:33:46.909Z,96239.41
2023-11-26T07:36:17.405Z,96245.13
2023-11-26T07:38:45.584Z,96250.73
2023-11-26T07:41:14.123Z,96264.66
2023-11-26T07:43:42.952Z,96264.06
2023-11-26T07:46:11.547Z,96264.64
2023-11-26T07:48:40.263Z,96273.11
2023-11-26T07:51:09.386Z,96272.45
2023-11-26T07:53:39.417Z,96268.73
2023-11-26T07:56:08.328Z,96279.41
2023-11-26T07:58:36.578Z,96280.52
2023-11-26T08:01:04.738Z,96284.13
2023-11-26T08:03:33.597Z,96286.33
2023-11-26T08:06:03.269Z,96280.90
2023-11-26T08:08:38.708Z,96284.39
2023-11-26T08:11:09.099Z,96294.74
2023-11-26T08:13:40.479Z,96291.63
2023-11-26T08:16:10.494Z,96298.12
2023-11-26T08:18:41.144Z,96297.00
2023-11-26T08:21:09.681Z,96300.50
2023-11-26T08:23:52.088Z,96298.14
2023-11-26T08:26:24.102Z,96306.39
2023-11-26T08:28:52.429Z,96313.89
2023-11-26T08:31:23.450Z,96316.80
2023-11-26T08:33:52.011Z,96314.20
2023-11-26T08:36:20.387Z,96317.31
2023-11-26T08:38:49.467Z,96314.08
2023-11-26T08:41:22.776Z,96311.14
2023-11-26T08:43:52.726Z,96323.39
2023-11-26T08:46:22.847Z,96316.18
2023-11-26T08:48:54.283Z,96320.36
2023-11-26T08:51:23.647Z,96318.52
2023-11-26T08:53:51.951Z,96322.55
2023-11-26T08:56:20.760Z,96320.80
2023-11-26T08:58:48.721Z,96320.42
2023-11-26T09:01:16.822Z,96318.48
2023-11-26T09:03:45.132Z,96312.95
2023-11-26T09:06:14.263Z,96320.05
2023-11-26T09:08:42.446Z,96317.63
2023-11-26T09:11:11.085Z,96323.13
2023-11-26T09:13:39.315Z,96321.32
2023-11-26T09:16:07.894Z,96328.02
2023-11-26T09:18:39.183Z,96326.20
2023-11-26T09:21:07.276Z,96321.45
2023-11-26T09:23:35.903Z,96326.33
2023-11-26T09:26:05.836Z,96317.72
2023-11-26T09:28:34.018Z,96322.89
2023-11-26T09:31:05.218Z,96320.34
2023-11-26T09:33:33.494Z,96311.06
2023-11-26T09:36:04.037Z,96317.37
2023-11-26T09:38:32.014Z,96315.06
2023-11-26T09:41:00.051Z,96300.34
2023-11-26T09:43:32.165Z,96308.14
2023-11-26T09:46:01.939Z,96314.09
2023-11-26T09:48:30.510Z,96324.77
2023-11-26T09:51:00.392Z,96318.27
2023-11-26T09:53:30.196Z,96315.91
2023-11-26T09:55:59.064Z,96328.39
2023-11-26T09:58:27.190Z,96334.10
2023-11-26T10:00:56.216Z,96329.61
2023-11-26T10:03:24.883Z,96338.05
2023-11-26T10:06:09.467Z,96341.26
2023-11-26T10:08:37.488Z,96346.42
2023-11-26T10:11:06.268Z,96344.32
2023-11-26T10:13:39.844Z,96343.96
2023-11-26T10:16:09.814Z,96340.92
2023-11-26T10:18:42.188Z,96345.11
2023-11-26T10:21:10.215Z,96338.92
2023-11-26T10:23:40.122Z,96347.27
2023-11-26T10:26:28.452Z,96345.48
2023-11-26T10:29:02.573Z,96337.13
2023-11-26T10:31:30.938Z,96352.86
2023-11-26T10:34:17.569Z,96363.10
2023-11-26T10:36:45.824Z,96353.04
2023-11-26T10:39:16.186Z,96354.75
2023-11-26T10:41:48.438Z,96359.13
2023-11-26T10:44:17.323Z,96359.44
2023-11-26T10:46:46.327Z,96358.07
2023-11-26T10:49:14.368Z,96355.63
2023-11-26T10:51:47.004Z,96358.52
2023-11-26T10:54:25.806Z,96354.67
2023-11-26T10:56:55.345Z,96356.13
2023-11-26T10:59:24.166Z,96374.42
2023-11-26T11:01:52.425Z,96372.60
2023-11-26T11:04:22.389Z,96378.17
2023-11-26T11:06:50.554Z,96374.70
2023-11-26T11:09:25.425Z,96371.94
2023-11-26T11:11:59.668Z,96386.20
2023-11-26T11:14:29.158Z,96383.26
2023-11-26T11:16:57.262Z,96378.93
2023-11-26T11:19:44.209Z,96382.85
2023-11-26T11:22:12.270Z,96385.89
2023-11-26T11:24:40.319Z,96385.55
2023-11-26T11:27:08.690Z,96383.95
2023-11-26T11:29:36.831Z,96384.46
2023-11-26T11:32:05.517Z,96388.04
2023-11-26T11:34:34.826Z,96391.67
2023-11-26T11:37:04.316Z,96398.64
2023-11-26T11:39:45.899Z,96390.90
2023-11-26T11:42:15.086Z,96404.24
2023-11-26T11:44:44.463Z,96412.05
2023-11-26T11:47:16.579Z,96416.02
2023-11-26T11:49:47.846Z,96413.23
2023-11-26T11:52:16.932Z,96418.27
2023-11-26T11:54:54.028Z,96418.75
2023-11-26T11:57:28.926Z,96423.29
2023-11-26T11:59:57.073Z,96428.84
2023-11-26T12:02:25.445Z,96424.19
2023-11-26T12:04:54.426Z,96426.00
2023-11-26T12:07:30.516Z,96422.17
2023-11-26T12:10:02.578Z,96430.48
2023-11-26T12:12:31.017Z,96435.76
2023-11-26T12:15:07.894Z,96437.41
2023-11-26T12:17:36.276Z,96450.57
2023-11-26T12:20:07.917Z,96455.16
2023-11-26T12:22:44.209Z,96456.64
2023-11-26T12:25:12.565Z,96451.98
2023-11-26T12:27:40.692Z,96457.23
2023-11-26T12:30:12.553Z,96454.33
2023-11-26T12:32:44.476Z,96454.58
2023-11-26T12:35:13.557Z,96457.35
2023-11-26T12:37:44.108Z,96445.78
2023-11-26T12:40:12.831Z,96456.13
2023-11-26T12:42:43.082Z,96454.38
2023-11-26T12:45:12.128Z,96457.98
2023-11-26T12:47:53.181Z,96448.56
2023-11-26T12:50:22.491Z,96462.80
2023-11-26T12:52:51.478Z,96460.73
2023-11-26T12:55:19.880Z,96458.45
2023-11-26T12:57:48.174Z,96451.14
2023-11-26T13:00:16.442Z,96458.48
2023-11-26T13:02:47.941Z,96460.65
2023-11-26T13:05:28.752Z,96467.27
2023-11-26T13:07:57.519Z,96470.35
2023-11-26T13:10:45.093Z,96468.19
2023-11-26T13:13:13.948Z,96480.11
2023-11-26T13:15:43.240Z,96479.73
2023-11-26T13:18:14.833Z,96478.09
2023-11-26T13:20:47.715Z,96483.33
2023-11-26T13:23:16.459Z,96481.67
2023-11-26T13:25:52.741Z,96480.07
2023-11-26T13:28:21.350Z,96492.69
2023-11-26T13:30:50.418Z,96492.70
2023-11-26T13:33:19.160Z,96501.80
2023-11-26T13:35:48.073Z,96498.31
2023-11-26T13:38:16.689Z,96507.29
2023-11-26T13:40:49.130Z,96519.08
2023-11-26T13:43:22.436Z,96502.64
2023-11-26T13:45:51.397Z,96512.61
2023-11-26T13:48:24.580Z,96514.11
2023-11-26T13:50:53.672Z,96526.25
2023-11-26T13:53:24.804Z,96535.50
2023-11-26T13:55:54.764Z,96526.24
2023-11-26T13:58:23.758Z,96533.06
2023-11-26T14:00:52.069Z,96532.19
2023-11-26T14:03:20.589Z,96531.19
2023-11-26T14:05:48.991Z,96524.38
2023-11-26T14:08:17.069Z,96530.38
2023-11-26T14:10:46.673Z,96535.45
2023-11-26T14:13:19.380Z,96540.82
2023-11-26T14:15:48.004Z,96545.91
2023-11-26T14:18:16.187Z,96544.98
2023-11-26T14:20:44.269Z,96548.09
2023-11-26T14:23:13.124Z,96551.89
2023-11-26T14:25:41.441Z,96558.56
2023-11-26T14:28:10.868Z,96561.06
2023-11-26T14:30:39.723Z,96567.38
2023-11-26T14:33:07.977Z,96567.07
2023-11-26T14:35:36.302Z,96571.11
2023-11-26T14:38:04.429Z,96560.98
2023-11-26T14:40:32.438Z,96561.98
2023-11-26T14:43:01.090Z,96573.87
2023-11-26T14:45:29.300Z,96573.95
2023-11-26T14:47:58.347Z,96585.84
2023-11-26T14:50:27.776Z,96583.21
2023-11-26T14:52:56.164Z,96588.41
2023-11-26T14:55:25.504Z,96589.38
2023-11-26T14:57:53.602Z,96594.76
2023-11-26T15:00:23.422Z,96600.60
2023-11-26T15:02:51.802Z,96595.77
2023-11-26T15:05:20.667Z,96603.46
2023-11-26T15:07:49.060Z,96593.58
2023-11-26T15:10:17.344Z,96611.20
2023-11-26T15:12:46.227Z,96594.62
2023-11-26T15:15:16.604Z,96604.64
2023-11-26T15:17:44.929Z,96603.14
2023-11-26T15:20:14.305Z,96608.93
2023-11-26T15:22:43.587Z,96613.33
2023-11-26T15:25:16.074Z,96620.16
2023-11-26T15:27:45.079Z,96618.26
2023-11-26T15:30:16.407Z,96623.44
2023-11-26T15:32:44.992Z,96631.67
2023-11-26T15:35:13.609Z,96626.71
2023-11-26T15:37:42.127Z,96635.02
2023-11-26T15:40:12.610Z,96645.20
2023-11-26T15:42:41.750Z,96644.02
2023-11-26T15:45:13.617Z,96642.51
2023-11-26T15:47:43.336Z,96650.98
2023-11-26T15:50:13.006Z,96644.19
2023-11-26T15:52:41.301Z,96668.88
2023-11-26T15:55:10.993Z,96665.34
2023-11-26T15:57:39.506Z,96667.89
2023-11-26T16:00:08.272Z,96678.43
2023-11-26T16:02:41.694Z,96690.07
2023-11-26T16:05:10.483Z,96696.91
2023-11-26T16:07:38.735Z,96697.73
2023-11-26T16:10:07.367Z,96705.38
2023-11-26T16:12:35.398Z,96718.38
2023-11-26T16:15:03.937Z,96715.75
2023-11-26T16:17:34.576Z,96725.73
2023-11-26T16:20:05.085Z,96721.41
2023-11-26T16:22:36.673Z,96729.70
2023-11-26T16:25:10.925Z,96728.78
2023-11-26T16:27:39.609Z,96736.26
2023-11-26T16:30:08.134Z,96733.81
2023-11-26T16:32:36.318Z,96736.03
2023-11-26T16:35:05.416Z,96742.11
2023-11-26T16:37:33.739Z,96747.00
2023-11-26T16:40:06.106Z,96748.69
2023-11-26T16:42:35.015Z,96754.01
2023-11-26T16:45:04.186Z,96749.12
2023-11-26T16:47:36.148Z,96757.19
2023-11-26T16:50:05.663Z,96749.89
2023-11-26T16:52:33.836Z,96756.40
2023-11-26T16:55:01.917Z,96759.23
2023-11-26T16:57:30.146Z,96757.48
2023-11-26T16:59:58.247Z,96765.18
2023-11-26T17:02:26.884Z,96764.86
2023-11-26T17:04:55.256Z,96766.16
2023-11-26T17:07:23.440Z,96769.83
2023-11-26T17:09:51.556Z,96774.07
2023-11-26T17:12:19.749Z,96771.33
2023-11-26T17:14:48.353Z,96774.01
2023-11-26T17:17:16.617Z,96770.38
2023-11-26T17:19:45.916Z,96783.70
2023-11-26T17:22:15.092Z,96779.53
2023-11-26T17:24:43.183Z,96783.98
2023-11-26T17:27:11.332Z,96778.94
2023-11-26T17:29:39.453Z,96784.80
2023-11-26T17:32:08.830Z,96792.59
2023-11-26T17:34:37.185Z,96793.23
2023-11-26T17:37:05.374Z,96795.08
2023-11-26T17:39:34.118Z,96792.13
2023-11-26T17:42:06.316Z,96804.73
2023-11-26T17:44:34.300Z,96809.71
2023-11-26T17:47:02.426Z,96814.95
2023-11-26T17:49:30.543Z,96821.83
2023-11-26T17:51:58.793Z,96826.46
2023-11-26T17:54:26.960Z,96829.02
2023-11-26T17:56:55.699Z,96839.61
2023-11-26T17:59:24.200Z,96836.59
2023-11-26T18:01:52.517Z,96853.69
2023-11-26T18:04:20.890Z,96858.73
2023-11-26T18:06:49.537Z,96855.24
2023-11-26T18:09:18.100Z,96858.25
2023-11-26T18:11:47.448Z,96855.77
2023-11-26T18:14:16.589Z,96871.09
2023-11-26T18:16:50.652Z,96867.81
2023-11-26T18:19:21.988Z,96874.38
2023-11-26T18:21:50.273Z,96882.29
2023-11-26T18:24:18.667Z,96886.44
2023-11-26T18:26:47.856Z,96884.77
2023-11-26T18:29:16.247Z,96881.14
2023-11-26T18:31:44.660Z,96875.60
2023-11-26T18:34:14.199Z,96873.91
2023-11-26T18:36:42.656Z,96882.97
2023-11-26T18:39:11.753Z,96876.06
2023-11-26T18:41:39.783Z,96871.37
2023-11-26T18:44:10.908Z,96870.70
2023-11-26T18:46:38.959Z,96874.48
2023-11-26T18:49:07.936Z,96883.48
2023-11-26T18:51:37.128Z,96886.46
2023-11-26T18:54:10.251Z,96887.34
2023-11-26T18:56:38.280Z,96890.45
2023-11-26T18:59:07.865Z,96896.74
2023-11-26T19:01:39.612Z,96900.74
2023-11-26T19:04:07.752Z,96902.55
2023-11-26T19:06:35.780Z,96902.57
2023-11-26T19:09:04.756Z,96904.09
2023-11-26T19:11:33.964Z,96908.77
2023-11-26T19:14:03.454Z,96911.79
2023-11-26T19:16:32.075Z,96915.98
2023-11-26T19:19:00.329Z,96919.67
2023-11-26T19:21:28.634Z,96922.88
2023-11-26T19:23:57.188Z,96923.42
2023-11-26T19:26:28.070Z,96926.00
2023-11-26T19:28:56.606Z,96932.81
2023-11-26T19:31:27.987Z,96930.93
2023-11-26T19:33:58.588Z,96940.21
2023-11-26T19:36:28.811Z,96942.20
2023-11-26T19:38:57.584Z,96936.91
2023-11-26T19:41:26.110Z,96948.20
2023-11-26T19:43:54.903Z,96941.02
2023-11-26T19:46:23.234Z,96945.85
2023-11-26T19:48:51.672Z,96954.23
2023-11-26T19:51:24.824Z,96956.35
2023-11-26T19:53:52.913Z,96960.55
2023-11-26T19:56:24.142Z,96965.31
2023-11-26T19:58:53.955Z,96970.36
2023-11-26T20:01:23.592Z,96963.36
2023-11-26T20:03:55.908Z,96972.98
2023-11-26T20:06:23.993Z,96968.52
2023-11-26T20:08:54.294Z,96973.95
2023-11-26T20:11:24.503Z,96970.77
2023-11-26T20:13:53.796Z,96973.47
2023-11-26T20:16:25.729Z,96984.11
2023-11-26T20:18:55.660Z,96986.45
2023-11-26T20:21:24.900Z,96979.60
2023-11-26T20:23:53.408Z,96990.71
2023-11-26T20:26:21.626Z,96987.15
2023-11-26T20:28:50.091Z,96993.67
2023-11-26T20:31:18.327Z,96995.98
2023-11-26T20:33:46.654Z,96993.86
2023-11-26T20:36:19.955Z,97014.63
2023-11-26T20:38:48.225Z,97009.06
2023-11-26T20:41:16.469Z,97010.48
2023-11-26T20:43:44.654Z,97012.81
2023-11-26T20:46:22.516Z,97017.20
2023-11-26T20:48:51.057Z,97030.72
2023-11-26T20:51:26.694Z,97027.36
2023-11-26T20:53:56.844Z,97033.64
2023-11-26T20:56:26.844Z,97034.27
2023-11-26T20:58:56.389Z,97030.92
2023-11-26T21:01:25.903Z,97033.34
2023-11-26T21:03:54.587Z,97035.77
2023-11-26T21:06:23.081Z,97038.63
2023-11-26T21:08:51.217Z,97046.05
2023-11-26T21:11:19.270Z,97047.99
2023-11-26T21:13:48.486Z,97050.92
2023-11-26T21:16:16.764Z,97058.91
2023-11-26T21:18:45.910Z,97063.98
2023-11-26T21:21:14.728Z,97066.16
2023-11-26T21:23:42.792Z,97073.37
2023-11-26T21:26:12.363Z,97074.67
2023-11-26T21:28:40.560Z,97074.25
2023-11-26T21:31:09.313Z,97079.43
2023-11-26T21:33:37.746Z,97079.46
2023-11-26T21:36:06.413Z,97078.42
2023-11-26T21:38:34.469Z,97079.56
2023-11-26T21:41:07.676Z,97083.80
2023-11-26T21:43:39.327Z,97083.98
2023-11-26T21:46:25.826Z,97093.26
2023-11-26T21:49:00.700Z,97096.93
2023-11-26T21:51:28.900Z,97100.23
2023-11-26T21:53:57.180Z,97109.38
2023-11-26T21:56:25.380Z,97111.77
2023-11-26T21:58:56.305Z,97114.38
2023-11-26T22:01:24.589Z,97113.04
2023-11-26T22:03:52.862Z,97111.13
2023-11-26T22:06:20.880Z,97117.23
2023-11-26T22:08:48.976Z,97114.58
2023-11-26T22:11:21.983Z,97114.98
2023-11-26T22:13:50.603Z,97115.80
2023-11-26T22:16:19.802Z,97115.95
2023-11-26T22:18:48.269Z,97115.26
2023-11-26T22:21:17.283Z,97114.83
2023-11-26T22:23:46.054Z,97117.95
2023-11-26T22:26:14.243Z,97115.95
2023-11-26T22:28:42.713Z,97120.52
2023-11-26T22:31:15.485Z,97118.60
2023-11-26T22:33:44.392Z,97118.61
2023-11-26T22:36:18.901Z,97121.76
2023-11-26T22:38:47.114Z,97123.42
2023-11-26T22:41:21.146Z,97126.90
2023-11-26T22:43:49.515Z,97130.77
2023-11-26T22:46:37.879Z,97133.16
2023-11-26T22:49:05.935Z,97140.23
2023-11-26T22:51:34.674Z,97137.77
2023-11-26T22:54:04.636Z,97143.06
2023-11-26T22:56:33.477Z,97146.84
2023-11-26T22:59:01.598Z,97149.92
2023-11-26T23:01:30.203Z,97148.38
2023-11-26T23:03:58.453Z,97147.59
2023-11-26T23:06:26.530Z,97149.11
2023-11-26T23:08:54.976Z,97153.38
2023-11-26T23:11:23.093Z,97153.95
2023-11-26T23:13:52.751Z,97150.84
2023-11-26T23:16:22.828Z,97150.36
2023-11-26T23:18:51.245Z,97148.81
2023-11-26T23:21:19.382Z,97149.04
2023-11-26T23:23:52.204Z,97144.59
2023-11-26T23:26:22.257Z,97145.19
2023-11-26T23:28:51.138Z,97143.65
2023-11-26T23:31:21.375Z,97137.80
2023-11-26T23:33:50.538Z,97136.41
2023-11-26T23:36:19.041Z,97133.70
2023-11-26T23:38:47.975Z,97134.55
2023-11-26T23:41:16.058Z,97126.71
2023-11-26T23:43:44.901Z,97131.80
2023-11-26T23:46:13.255Z,97142.81
2023-11-26T23:48:44.264Z,97151.02
2023-11-26T23:51:12.752Z,97155.10
2023-11-26T23:53:40.765Z,97156.89
2023-11-26T23:56:09.114Z,97159.93
2023-11-26T23:58:37.170Z,97161.27
